sensor_id;sensor_type;location;lat;lon;timestamp;temperature;humidity
68578;SHT31;61668;45.388;11.784;2022-07-29T00:00:35;25.32;60.76
68578;SHT31;61668;45.388;11.784;2022-07-29T00:03:01;25.33;60.76
68578;SHT31;61668;45.388;11.784;2022-07-29T00:05:27;25.34;60.71
68578;SHT31;61668;45.388;11.784;2022-07-29T00:07:53;25.35;60.66
68578;SHT31;61668;45.388;11.784;2022-07-29T00:10:19;25.36;60.65
68578;SHT31;61668;45.388;11.784;2022-07-29T00:12:45;25.36;60.20
68578;SHT31;61668;45.388;11.784;2022-07-29T00:15:11;25.38;59.27
68578;SHT31;61668;45.388;11.784;2022-07-29T00:17:37;25.41;58.48
68578;SHT31;61668;45.388;11.784;2022-07-29T00:20:03;25.44;58.09
68578;SHT31;61668;45.388;11.784;2022-07-29T00:22:29;25.44;57.80
68578;SHT31;61668;45.388;11.784;2022-07-29T00:24:55;25.44;57.09
68578;SHT31;61668;45.388;11.784;2022-07-29T00:27:20;25.42;56.03
68578;SHT31;61668;45.388;11.784;2022-07-29T00:29:46;25.39;55.74
68578;SHT31;61668;45.388;11.784;2022-07-29T00:32:12;25.36;55.61
68578;SHT31;61668;45.388;11.784;2022-07-29T00:34:38;25.33;55.38
68578;SHT31;61668;45.388;11.784;2022-07-29T00:37:22;25.27;55.24
68578;SHT31;61668;45.388;11.784;2022-07-29T00:39:48;25.21;55.20
68578;SHT31;61668;45.388;11.784;2022-07-29T00:42:13;25.14;55.32
68578;SHT31;61668;45.388;11.784;2022-07-29T00:44:39;25.08;55.58
68578;SHT31;61668;45.388;11.784;2022-07-29T00:47:06;25.01;55.58
68578;SHT31;61668;45.388;11.784;2022-07-29T00:49:34;24.93;55.66
68578;SHT31;61668;45.388;11.784;2022-07-29T00:52:03;24.88;55.82
68578;SHT31;61668;45.388;11.784;2022-07-29T00:54:30;24.85;55.96
68578;SHT31;61668;45.388;11.784;2022-07-29T00:56:57;24.83;56.00
68578;SHT31;61668;45.388;11.784;2022-07-29T00:59:23;24.79;55.98
68578;SHT31;61668;45.388;11.784;2022-07-29T01:01:51;24.75;56.02
68578;SHT31;61668;45.388;11.784;2022-07-29T01:04:18;24.70;56.01
68578;SHT31;61668;45.388;11.784;2022-07-29T01:06:45;24.67;56.08
68578;SHT31;61668;45.388;11.784;2022-07-29T01:09:13;24.65;56.30
68578;SHT31;61668;45.388;11.784;2022-07-29T01:11:41;24.61;56.49
68578;SHT31;61668;45.388;11.784;2022-07-29T01:14:08;24.57;56.67
68578;SHT31;61668;45.388;11.784;2022-07-29T01:16:41;24.50;56.87
68578;SHT31;61668;45.388;11.784;2022-07-29T01:26:17;24.27;57.57
68578;SHT31;61668;45.388;11.784;2022-07-29T01:31:07;24.15;58.18
68578;SHT31;61668;45.388;11.784;2022-07-29T01:33:43;24.07;58.51
68578;SHT31;61668;45.388;11.784;2022-07-29T01:36:18;24.01;58.83
68578;SHT31;61668;45.388;11.784;2022-07-29T01:39:19;23.94;59.13
68578;SHT31;61668;45.388;11.784;2022-07-29T01:42:06;23.89;59.38
68578;SHT31;61668;45.388;11.784;2022-07-29T01:50:36;23.80;59.78
68578;SHT31;61668;45.388;11.784;2022-07-29T01:53:11;23.81;59.86
68578;SHT31;61668;45.388;11.784;2022-07-29T01:55:44;23.83;59.91
68578;SHT31;61668;45.388;11.784;2022-07-29T01:58:11;23.84;59.96
68578;SHT31;61668;45.388;11.784;2022-07-29T02:00:38;23.84;59.93
68578;SHT31;61668;45.388;11.784;2022-07-29T02:03:07;23.83;60.03
68578;SHT31;61668;45.388;11.784;2022-07-29T02:05:36;23.80;60.18
68578;SHT31;61668;45.388;11.784;2022-07-29T02:08:04;23.75;60.32
68578;SHT31;61668;45.388;11.784;2022-07-29T02:10:32;23.71;60.53
68578;SHT31;61668;45.388;11.784;2022-07-29T02:12:59;23.68;60.64
68578;SHT31;61668;45.388;11.784;2022-07-29T02:15:26;23.64;60.76
68578;SHT31;61668;45.388;11.784;2022-07-29T02:18:06;23.62;60.92
68578;SHT31;61668;45.388;11.784;2022-07-29T02:20:37;23.60;61.08
68578;SHT31;61668;45.388;11.784;2022-07-29T02:23:05;23.56;61.23
68578;SHT31;61668;45.388;11.784;2022-07-29T02:25:32;23.57;61.36
68578;SHT31;61668;45.388;11.784;2022-07-29T02:27:58;23.60;61.44
68578;SHT31;61668;45.388;11.784;2022-07-29T02:30:26;23.61;61.50
68578;SHT31;61668;45.388;11.784;2022-07-29T02:32:53;23.62;61.57
68578;SHT31;61668;45.388;11.784;2022-07-29T02:35:20;23.61;61.66
68578;SHT31;61668;45.388;11.784;2022-07-29T02:37:47;23.60;61.69
68578;SHT31;61668;45.388;11.784;2022-07-29T02:40:34;23.59;61.70
68578;SHT31;61668;45.388;11.784;2022-07-29T02:43:03;23.57;61.72
68578;SHT31;61668;45.388;11.784;2022-07-29T02:45:32;23.54;61.74
68578;SHT31;61668;45.388;11.784;2022-07-29T02:47:59;23.55;61.88
68578;SHT31;61668;45.388;11.784;2022-07-29T02:50:38;23.53;61.92
68578;SHT31;61668;45.388;11.784;2022-07-29T02:53:16;23.52;62.07
68578;SHT31;61668;45.388;11.784;2022-07-29T02:55:49;23.48;62.28
68578;SHT31;61668;45.388;11.784;2022-07-29T02:58:25;23.47;62.49
68578;SHT31;61668;45.388;11.784;2022-07-29T03:01:03;23.47;62.58
68578;SHT31;61668;45.388;11.784;2022-07-29T03:03:36;23.47;62.65
68578;SHT31;61668;45.388;11.784;2022-07-29T03:06:03;23.47;62.63
68578;SHT31;61668;45.388;11.784;2022-07-29T03:08:30;23.47;62.70
68578;SHT31;61668;45.388;11.784;2022-07-29T03:10:58;23.45;62.71
68578;SHT31;61668;45.388;11.784;2022-07-29T03:13:24;23.43;62.67
68578;SHT31;61668;45.388;11.784;2022-07-29T03:15:51;23.40;62.63
68578;SHT31;61668;45.388;11.784;2022-07-29T03:18:17;23.35;62.60
68578;SHT31;61668;45.388;11.784;2022-07-29T03:20:43;23.32;62.71
68578;SHT31;61668;45.388;11.784;2022-07-29T03:23:08;23.27;62.79
68578;SHT31;61668;45.388;11.784;2022-07-29T03:25:34;23.23;62.93
68578;SHT31;61668;45.388;11.784;2022-07-29T03:28:00;23.19;63.08
68578;SHT31;61668;45.388;11.784;2022-07-29T03:30:26;23.16;63.24
68578;SHT31;61668;45.388;11.784;2022-07-29T03:32:52;23.16;63.28
68578;SHT31;61668;45.388;11.784;2022-07-29T03:35:19;23.16;63.16
68578;SHT31;61668;45.388;11.784;2022-07-29T03:37:45;23.14;63.16
68578;SHT31;61668;45.388;11.784;2022-07-29T03:40:11;23.11;63.27
68578;SHT31;61668;45.388;11.784;2022-07-29T03:43:01;23.09;63.37
68578;SHT31;61668;45.388;11.784;2022-07-29T03:45:28;23.05;63.39
68578;SHT31;61668;45.388;11.784;2022-07-29T03:48:01;23.02;63.37
68578;SHT31;61668;45.388;11.784;2022-07-29T03:50:31;22.97;63.44
68578;SHT31;61668;45.388;11.784;2022-07-29T03:52:59;22.94;63.50
68578;SHT31;61668;45.388;11.784;2022-07-29T03:55:26;22.89;63.64
68578;SHT31;61668;45.388;11.784;2022-07-29T03:57:53;22.86;63.71
68578;SHT31;61668;45.388;11.784;2022-07-29T04:00:23;22.85;63.80
68578;SHT31;61668;45.388;11.784;2022-07-29T04:02:50;22.85;64.00
68578;SHT31;61668;45.388;11.784;2022-07-29T04:05:16;22.88;63.99
68578;SHT31;61668;45.388;11.784;2022-07-29T04:07:43;22.90;63.95
68578;SHT31;61668;45.388;11.784;2022-07-29T04:10:10;22.90;64.01
68578;SHT31;61668;45.388;11.784;2022-07-29T04:12:36;22.86;64.13
68578;SHT31;61668;45.388;11.784;2022-07-29T04:15:02;22.83;64.26
68578;SHT31;61668;45.388;11.784;2022-07-29T04:17:29;22.80;64.32
68578;SHT31;61668;45.388;11.784;2022-07-29T04:19:54;22.79;64.44
68578;SHT31;61668;45.388;11.784;2022-07-29T04:22:19;22.78;64.50
68578;SHT31;61668;45.388;11.784;2022-07-29T04:24:45;22.78;64.60
68578;SHT31;61668;45.388;11.784;2022-07-29T04:27:10;22.77;64.60
68578;SHT31;61668;45.388;11.784;2022-07-29T04:29:36;22.79;64.70
68578;SHT31;61668;45.388;11.784;2022-07-29T04:32:01;22.80;64.71
68578;SHT31;61668;45.388;11.784;2022-07-29T04:34:27;22.83;64.78
68578;SHT31;61668;45.388;11.784;2022-07-29T04:36:52;22.87;64.69
68578;SHT31;61668;45.388;11.784;2022-07-29T04:39:18;22.88;64.62
68578;SHT31;61668;45.388;11.784;2022-07-29T04:41:44;22.91;64.65
68578;SHT31;61668;45.388;11.784;2022-07-29T04:44:09;22.92;64.68
68578;SHT31;61668;45.388;11.784;2022-07-29T04:46:35;22.92;64.84
68578;SHT31;61668;45.388;11.784;2022-07-29T04:49:01;22.92;64.88
68578;SHT31;61668;45.388;11.784;2022-07-29T04:51:28;22.92;64.86
68578;SHT31;61668;45.388;11.784;2022-07-29T04:53:53;22.91;64.80
68578;SHT31;61668;45.388;11.784;2022-07-29T04:56:19;22.91;64.79
68578;SHT31;61668;45.388;11.784;2022-07-29T04:58:44;22.91;64.91
68578;SHT31;61668;45.388;11.784;2022-07-29T05:01:10;22.94;64.91
68578;SHT31;61668;45.388;11.784;2022-07-29T05:03:35;22.98;64.91
68578;SHT31;61668;45.388;11.784;2022-07-29T05:06:01;23.02;64.80
68578;SHT31;61668;45.388;11.784;2022-07-29T05:08:26;23.08;64.91
68578;SHT31;61668;45.388;11.784;2022-07-29T05:10:52;23.14;64.90
68578;SHT31;61668;45.388;11.784;2022-07-29T05:13:17;23.20;64.70
68578;SHT31;61668;45.388;11.784;2022-07-29T05:15:43;23.26;64.54
68578;SHT31;61668;45.388;11.784;2022-07-29T05:18:08;23.32;64.33
68578;SHT31;61668;45.388;11.784;2022-07-29T05:20:34;23.40;64.16
68578;SHT31;61668;45.388;11.784;2022-07-29T05:23:00;23.54;63.82
68578;SHT31;61668;45.388;11.784;2022-07-29T05:25:27;23.66;63.62
68578;SHT31;61668;45.388;11.784;2022-07-29T05:27:54;23.77;63.70
68578;SHT31;61668;45.388;11.784;2022-07-29T05:30:20;23.86;63.12
68578;SHT31;61668;45.388;11.784;2022-07-29T05:32:46;23.94;62.79
68578;SHT31;61668;45.388;11.784;2022-07-29T05:35:12;24.02;62.56
68578;SHT31;61668;45.388;11.784;2022-07-29T05:37:39;24.10;62.41
68578;SHT31;61668;45.388;11.784;2022-07-29T05:40:05;24.15;62.33
68578;SHT31;61668;45.388;11.784;2022-07-29T05:42:34;24.24;62.83
68578;SHT31;61668;45.388;11.784;2022-07-29T05:45:00;24.32;62.58
68578;SHT31;61668;45.388;11.784;2022-07-29T05:47:27;24.41;62.48
68578;SHT31;61668;45.388;11.784;2022-07-29T05:49:53;24.50;62.32
68578;SHT31;61668;45.388;11.784;2022-07-29T05:52:18;24.60;62.08
68578;SHT31;61668;45.388;11.784;2022-07-29T05:54:45;24.77;61.83
68578;SHT31;61668;45.388;11.784;2022-07-29T05:57:17;24.93;61.06
68578;SHT31;61668;45.388;11.784;2022-07-29T05:59:47;25.20;61.01
68578;SHT31;61668;45.388;11.784;2022-07-29T06:02:13;25.55;60.73
68578;SHT31;61668;45.388;11.784;2022-07-29T06:04:39;25.93;59.89
68578;SHT31;61668;45.388;11.784;2022-07-29T06:07:05;26.24;60.63
68578;SHT31;61668;45.388;11.784;2022-07-29T06:09:31;26.53;59.92
68578;SHT31;61668;45.388;11.784;2022-07-29T06:11:58;26.88;59.56
68578;SHT31;61668;45.388;11.784;2022-07-29T06:14:23;27.30;59.49
68578;SHT31;61668;45.388;11.784;2022-07-29T06:16:50;27.69;59.58
68578;SHT31;61668;45.388;11.784;2022-07-29T06:19:15;28.05;57.93
68578;SHT31;61668;45.388;11.784;2022-07-29T06:21:42;28.35;56.76
68578;SHT31;61668;45.388;11.784;2022-07-29T06:24:10;28.72;56.81
68578;SHT31;61668;45.388;11.784;2022-07-29T06:26:39;29.10;55.76
68578;SHT31;61668;45.388;11.784;2022-07-29T06:29:08;29.29;54.88
68578;SHT31;61668;45.388;11.784;2022-07-29T06:31:38;29.39;55.05
68578;SHT31;61668;45.388;11.784;2022-07-29T06:34:04;29.46;52.50
68578;SHT31;61668;45.388;11.784;2022-07-29T06:36:29;29.55;52.20
68578;SHT31;61668;45.388;11.784;2022-07-29T06:38:55;29.57;51.11
68578;SHT31;61668;45.388;11.784;2022-07-29T06:41:21;29.55;50.77
68578;SHT31;61668;45.388;11.784;2022-07-29T06:43:48;29.52;50.36
68578;SHT31;61668;45.388;11.784;2022-07-29T06:46:14;29.49;51.07
68578;SHT31;61668;45.388;11.784;2022-07-29T06:48:42;29.54;51.39
68578;SHT31;61668;45.388;11.784;2022-07-29T06:51:08;29.57;50.02
68578;SHT31;61668;45.388;11.784;2022-07-29T06:53:35;29.60;49.97
68578;SHT31;61668;45.388;11.784;2022-07-29T06:56:01;29.59;49.56
68578;SHT31;61668;45.388;11.784;2022-07-29T06:58:29;29.53;48.99
68578;SHT31;61668;45.388;11.784;2022-07-29T07:00:56;29.50;49.22
68578;SHT31;61668;45.388;11.784;2022-07-29T07:03:23;29.52;49.77
68578;SHT31;61668;45.388;11.784;2022-07-29T07:05:49;29.52;48.90
68578;SHT31;61668;45.388;11.784;2022-07-29T07:08:18;29.49;48.21
68578;SHT31;61668;45.388;11.784;2022-07-29T07:10:45;29.43;47.70
68578;SHT31;61668;45.388;11.784;2022-07-29T07:13:11;29.36;47.58
68578;SHT31;61668;45.388;11.784;2022-07-29T07:15:37;29.32;48.18
68578;SHT31;61668;45.388;11.784;2022-07-29T07:18:04;29.28;48.55
68578;SHT31;61668;45.388;11.784;2022-07-29T07:20:31;29.28;49.14
68578;SHT31;61668;45.388;11.784;2022-07-29T07:22:57;29.28;48.64
68578;SHT31;61668;45.388;11.784;2022-07-29T07:25:23;29.28;48.38
68578;SHT31;61668;45.388;11.784;2022-07-29T07:27:48;29.29;48.56
68578;SHT31;61668;45.388;11.784;2022-07-29T07:30:14;29.29;48.23
68578;SHT31;61668;45.388;11.784;2022-07-29T07:32:40;29.29;48.39
68578;SHT31;61668;45.388;11.784;2022-07-29T07:35:06;29.31;47.67
68578;SHT31;61668;45.388;11.784;2022-07-29T07:37:33;29.34;47.65
68578;SHT31;61668;45.388;11.784;2022-07-29T07:39:59;29.36;47.28
68578;SHT31;61668;45.388;11.784;2022-07-29T07:42:26;29.39;47.44
68578;SHT31;61668;45.388;11.784;2022-07-29T07:44:52;29.38;47.03
68578;SHT31;61668;45.388;11.784;2022-07-29T07:47:18;29.39;47.28
68578;SHT31;61668;45.388;11.784;2022-07-29T07:49:48;29.39;47.67
68578;SHT31;61668;45.388;11.784;2022-07-29T07:52:15;29.43;47.88
68578;SHT31;61668;45.388;11.784;2022-07-29T07:54:43;29.47;47.75
68578;SHT31;61668;45.388;11.784;2022-07-29T07:57:10;29.53;47.38
68578;SHT31;61668;45.388;11.784;2022-07-29T07:59:39;29.62;46.93
68578;SHT31;61668;45.388;11.784;2022-07-29T08:02:05;29.85;46.63
68578;SHT31;61668;45.388;11.784;2022-07-29T08:04:31;30.13;45.86
68578;SHT31;61668;45.388;11.784;2022-07-29T08:06:57;30.33;45.78
68578;SHT31;61668;45.388;11.784;2022-07-29T08:09:24;30.48;45.65
68578;SHT31;61668;45.388;11.784;2022-07-29T08:11:52;30.52;45.82
68578;SHT31;61668;45.388;11.784;2022-07-29T08:14:18;31.01;45.20
68578;SHT31;61668;45.388;11.784;2022-07-29T08:16:44;32.25;43.34
68578;SHT31;61668;45.388;11.784;2022-07-29T08:19:09;32.73;42.65
68578;SHT31;61668;45.388;11.784;2022-07-29T08:21:35;32.84;41.86
68578;SHT31;61668;45.388;11.784;2022-07-29T08:24:01;32.79;41.72
68578;SHT31;61668;45.388;11.784;2022-07-29T08:26:47;32.51;41.83
68578;SHT31;61668;45.388;11.784;2022-07-29T08:29:13;32.42;41.69
68578;SHT31;61668;45.388;11.784;2022-07-29T08:31:39;32.97;41.87
68578;SHT31;61668;45.388;11.784;2022-07-29T08:34:05;33.98;40.18
68578;SHT31;61668;45.388;11.784;2022-07-29T08:36:31;34.80;38.00
68578;SHT31;61668;45.388;11.784;2022-07-29T08:38:58;35.42;36.48
68578;SHT31;61668;45.388;11.784;2022-07-29T08:41:25;35.88;36.00
68578;SHT31;61668;45.388;11.784;2022-07-29T08:43:51;36.24;36.40
68578;SHT31;61668;45.388;11.784;2022-07-29T08:46:18;36.56;35.44
68578;SHT31;61668;45.388;11.784;2022-07-29T08:48:45;36.83;35.99
68578;SHT31;61668;45.388;11.784;2022-07-29T08:51:14;37.17;36.16
68578;SHT31;61668;45.388;11.784;2022-07-29T08:53:48;37.42;35.75
68578;SHT31;61668;45.388;11.784;2022-07-29T08:56:15;37.67;35.77
68578;SHT31;61668;45.388;11.784;2022-07-29T08:58:43;37.79;33.60
68578;SHT31;61668;45.388;11.784;2022-07-29T09:01:11;37.85;35.31
68578;SHT31;61668;45.388;11.784;2022-07-29T09:03:39;37.96;35.07
68578;SHT31;61668;45.388;11.784;2022-07-29T09:06:06;38.07;35.78
68578;SHT31;61668;45.388;11.784;2022-07-29T09:08:33;38.15;34.28
68578;SHT31;61668;45.388;11.784;2022-07-29T09:11:00;38.20;34.23
68578;SHT31;61668;45.388;11.784;2022-07-29T09:13:28;38.25;33.46
68578;SHT31;61668;45.388;11.784;2022-07-29T09:15:54;38.32;32.87
68578;SHT31;61668;45.388;11.784;2022-07-29T09:18:38;38.37;31.73
68578;SHT31;61668;45.388;11.784;2022-07-29T09:21:07;38.13;31.51
68578;SHT31;61668;45.388;11.784;2022-07-29T09:24:03;37.93;31.61
68578;SHT31;61668;45.388;11.784;2022-07-29T09:26:36;37.79;31.74
68578;SHT31;61668;45.388;11.784;2022-07-29T09:29:11;37.75;32.62
68578;SHT31;61668;45.388;11.784;2022-07-29T09:31:47;37.75;32.38
68578;SHT31;61668;45.388;11.784;2022-07-29T09:34:27;37.71;32.64
68578;SHT31;61668;45.388;11.784;2022-07-29T09:36:56;37.69;31.66
68578;SHT31;61668;45.388;11.784;2022-07-29T09:42:03;37.44;32.14
68578;SHT31;61668;45.388;11.784;2022-07-29T09:47:14;37.31;32.92
68578;SHT31;61668;45.388;11.784;2022-07-29T09:50:04;37.30;32.89
68578;SHT31;61668;45.388;11.784;2022-07-29T09:52:29;37.22;32.00
68578;SHT31;61668;45.388;11.784;2022-07-29T09:55:08;37.12;32.24
68578;SHT31;61668;45.388;11.784;2022-07-29T09:57:36;37.13;32.16
68578;SHT31;61668;45.388;11.784;2022-07-29T10:00:15;37.14;32.43
68578;SHT31;61668;45.388;11.784;2022-07-29T10:02:43;37.22;32.83
68578;SHT31;61668;45.388;11.784;2022-07-29T10:05:21;37.34;33.28
68578;SHT31;61668;45.388;11.784;2022-07-29T10:07:50;37.37;31.68
68578;SHT31;61668;45.388;11.784;2022-07-29T10:10:25;37.33;31.37
68578;SHT31;61668;45.388;11.784;2022-07-29T10:15:24;37.31;31.18
68578;SHT31;61668;45.388;11.784;2022-07-29T10:17:53;37.26;31.23
68578;SHT31;61668;45.388;11.784;2022-07-29T10:20:21;37.25;32.19
68578;SHT31;61668;45.388;11.784;2022-07-29T10:22:48;37.43;32.95
68578;SHT31;61668;45.388;11.784;2022-07-29T10:25:16;37.63;32.61
68578;SHT31;61668;45.388;11.784;2022-07-29T10:27:44;37.78;32.48
68578;SHT31;61668;45.388;11.784;2022-07-29T10:30:11;37.92;32.52
68578;SHT31;61668;45.388;11.784;2022-07-29T10:32:43;38.06;32.34
68578;SHT31;61668;45.388;11.784;2022-07-29T10:41:56;38.59;32.19
68578;SHT31;61668;45.388;11.784;2022-07-29T10:44:35;38.72;31.48
68578;SHT31;61668;45.388;11.784;2022-07-29T10:47:06;38.78;30.94
68578;SHT31;61668;45.388;11.784;2022-07-29T10:49:31;38.81;30.44
68578;SHT31;61668;45.388;11.784;2022-07-29T10:52:09;38.72;30.80
68578;SHT31;61668;45.388;11.784;2022-07-29T10:54:36;38.74;31.41
68578;SHT31;61668;45.388;11.784;2022-07-29T10:57:13;38.73;29.93
68578;SHT31;61668;45.388;11.784;2022-07-29T10:59:43;38.58;29.52
68578;SHT31;61668;45.388;11.784;2022-07-29T11:04:58;38.33;29.93
68578;SHT31;61668;45.388;11.784;2022-07-29T11:07:31;38.30;29.75
68578;SHT31;61668;45.388;11.784;2022-07-29T11:20:32;38.59;31.23
68578;SHT31;61668;45.388;11.784;2022-07-29T11:23:22;38.76;31.74
68578;SHT31;61668;45.388;11.784;2022-07-29T11:31:41;39.05;30.76
68578;SHT31;61668;45.388;11.784;2022-07-29T11:34:29;39.07;29.91
68578;SHT31;61668;45.388;11.784;2022-07-29T11:39:32;39.12;30.06
68578;SHT31;61668;45.388;11.784;2022-07-29T11:45:45;39.25;30.00
68578;SHT31;61668;45.388;11.784;2022-07-29T11:47:49;39.20;29.99
68578;SHT31;61668;45.388;11.784;2022-07-29T11:50:26;39.21;30.32
68578;SHT31;61668;45.388;11.784;2022-07-29T11:52:52;39.12;29.43
68578;SHT31;61668;45.388;11.784;2022-07-29T11:55:19;38.93;29.50
68578;SHT31;61668;45.388;11.784;2022-07-29T11:57:56;38.84;29.92
68578;SHT31;61668;45.388;11.784;2022-07-29T12:02:54;38.75;29.46
68578;SHT31;61668;45.388;11.784;2022-07-29T12:05:30;38.62;29.52
68578;SHT31;61668;45.388;11.784;2022-07-29T12:10:32;38.67;31.04
68578;SHT31;61668;45.388;11.784;2022-07-29T12:12:58;38.80;30.39
68578;SHT31;61668;45.388;11.784;2022-07-29T12:15:24;38.84;30.37
68578;SHT31;61668;45.388;11.784;2022-07-29T12:17:51;38.94;31.77
68578;SHT31;61668;45.388;11.784;2022-07-29T12:20:24;39.03;30.05
68578;SHT31;61668;45.388;11.784;2022-07-29T12:22:54;38.99;29.70
68578;SHT31;61668;45.388;11.784;2022-07-29T12:25:22;38.91;29.73
68578;SHT31;61668;45.388;11.784;2022-07-29T12:28:02;38.84;30.44
68578;SHT31;61668;45.388;11.784;2022-07-29T12:30:42;38.81;30.15
68578;SHT31;61668;45.388;11.784;2022-07-29T12:33:21;38.83;30.26
68578;SHT31;61668;45.388;11.784;2022-07-29T12:35:50;38.86;30.54
68578;SHT31;61668;45.388;11.784;2022-07-29T12:38:27;38.99;30.67
68578;SHT31;61668;45.388;11.784;2022-07-29T12:40:53;39.08;30.52
68578;SHT31;61668;45.388;11.784;2022-07-29T12:43:21;39.18;30.59
68578;SHT31;61668;45.388;11.784;2022-07-29T12:45:50;39.12;29.31
68578;SHT31;61668;45.388;11.784;2022-07-29T12:48:36;38.80;29.68
68578;SHT31;61668;45.388;11.784;2022-07-29T12:51:05;38.38;30.08
68578;SHT31;61668;45.388;11.784;2022-07-29T12:53:32;37.93;29.74
68578;SHT31;61668;45.388;11.784;2022-07-29T12:55:58;37.64;30.36
68578;SHT31;61668;45.388;11.784;2022-07-29T13:01:14;37.63;30.25
68578;SHT31;61668;45.388;11.784;2022-07-29T13:04:05;37.63;30.70
68578;SHT31;61668;45.388;11.784;2022-07-29T13:09:14;37.68;30.27
68578;SHT31;61668;45.388;11.784;2022-07-29T13:11:45;37.63;30.36
68578;SHT31;61668;45.388;11.784;2022-07-29T13:14:30;37.67;30.35
68578;SHT31;61668;45.388;11.784;2022-07-29T13:17:11;37.81;31.16
68578;SHT31;61668;45.388;11.784;2022-07-29T13:22:10;37.89;30.13
68578;SHT31;61668;45.388;11.784;2022-07-29T13:24:48;37.86;29.99
68578;SHT31;61668;45.388;11.784;2022-07-29T13:27:22;37.87;30.59
68578;SHT31;61668;45.388;11.784;2022-07-29T13:29:50;37.94;29.82
68578;SHT31;61668;45.388;11.784;2022-07-29T13:32:17;37.91;30.24
68578;SHT31;61668;45.388;11.784;2022-07-29T13:34:44;37.99;30.12
68578;SHT31;61668;45.388;11.784;2022-07-29T13:37:09;37.99;29.76
68578;SHT31;61668;45.388;11.784;2022-07-29T13:39:35;37.94;30.09
68578;SHT31;61668;45.388;11.784;2022-07-29T13:42:02;37.89;29.76
68578;SHT31;61668;45.388;11.784;2022-07-29T13:44:29;37.80;29.61
68578;SHT31;61668;45.388;11.784;2022-07-29T13:46:54;37.66;29.77
68578;SHT31;61668;45.388;11.784;2022-07-29T13:49:21;37.58;30.09
68578;SHT31;61668;45.388;11.784;2022-07-29T13:51:48;37.39;29.72
68578;SHT31;61668;45.388;11.784;2022-07-29T13:54:14;37.15;30.01
68578;SHT31;61668;45.388;11.784;2022-07-29T13:56:40;36.94;30.19
68578;SHT31;61668;45.388;11.784;2022-07-29T13:59:05;36.74;30.56
68578;SHT31;61668;45.388;11.784;2022-07-29T14:01:32;36.61;30.76
68578;SHT31;61668;45.388;11.784;2022-07-29T14:03:59;36.43;30.76
68578;SHT31;61668;45.388;11.784;2022-07-29T14:06:25;36.24;31.02
68578;SHT31;61668;45.388;11.784;2022-07-29T14:08:51;36.06;31.32
68578;SHT31;61668;45.388;11.784;2022-07-29T14:11:16;35.93;31.21
68578;SHT31;61668;45.388;11.784;2022-07-29T14:13:42;35.78;31.36
68578;SHT31;61668;45.388;11.784;2022-07-29T14:16:07;35.64;31.89
68578;SHT31;61668;45.388;11.784;2022-07-29T14:18:33;35.58;32.02
68578;SHT31;61668;45.388;11.784;2022-07-29T14:20:58;35.49;31.98
68578;SHT31;61668;45.388;11.784;2022-07-29T14:23:24;35.38;32.17
68578;SHT31;61668;45.388;11.784;2022-07-29T14:25:49;35.25;32.15
68578;SHT31;61668;45.388;11.784;2022-07-29T14:28:15;35.13;32.52
68578;SHT31;61668;45.388;11.784;2022-07-29T14:30:41;35.04;32.64
68578;SHT31;61668;45.388;11.784;2022-07-29T14:33:06;34.93;32.77
68578;SHT31;61668;45.388;11.784;2022-07-29T14:35:33;34.83;32.86
68578;SHT31;61668;45.388;11.784;2022-07-29T14:37:58;34.75;33.09
68578;SHT31;61668;45.388;11.784;2022-07-29T14:40:23;34.70;33.26
68578;SHT31;61668;45.388;11.784;2022-07-29T14:42:50;34.66;33.07
68578;SHT31;61668;45.388;11.784;2022-07-29T14:45:16;34.58;33.31
68578;SHT31;61668;45.388;11.784;2022-07-29T14:47:41;34.50;33.36
68578;SHT31;61668;45.388;11.784;2022-07-29T14:50:07;34.42;33.42
68578;SHT31;61668;45.388;11.784;2022-07-29T14:52:34;34.37;33.52
68578;SHT31;61668;45.388;11.784;2022-07-29T14:55:00;34.31;33.55
68578;SHT31;61668;45.388;11.784;2022-07-29T14:57:25;34.25;33.54
68578;SHT31;61668;45.388;11.784;2022-07-29T14:59:51;34.21;33.75
68578;SHT31;61668;45.388;11.784;2022-07-29T15:02:16;34.15;33.90
68578;SHT31;61668;45.388;11.784;2022-07-29T15:04:42;34.09;33.79
68578;SHT31;61668;45.388;11.784;2022-07-29T15:07:09;34.03;33.77
68578;SHT31;61668;45.388;11.784;2022-07-29T15:09:34;33.96;33.94
68578;SHT31;61668;45.388;11.784;2022-07-29T15:12:00;33.89;34.18
68578;SHT31;61668;45.388;11.784;2022-07-29T15:14:27;33.83;34.35
68578;SHT31;61668;45.388;11.784;2022-07-29T15:16:53;33.77;34.84
68578;SHT31;61668;45.388;11.784;2022-07-29T15:19:19;33.75;35.06
68578;SHT31;61668;45.388;11.784;2022-07-29T15:21:44;33.70;35.45
68578;SHT31;61668;45.388;11.784;2022-07-29T15:24:10;33.64;35.63
68578;SHT31;61668;45.388;11.784;2022-07-29T15:26:35;33.56;35.71
68578;SHT31;61668;45.388;11.784;2022-07-29T15:29:01;33.45;35.96
68578;SHT31;61668;45.388;11.784;2022-07-29T15:31:27;33.37;36.38
68578;SHT31;61668;45.388;11.784;2022-07-29T15:33:52;33.32;36.53
68578;SHT31;61668;45.388;11.784;2022-07-29T15:36:18;33.26;36.52
68578;SHT31;61668;45.388;11.784;2022-07-29T15:38:43;33.20;36.77
68578;SHT31;61668;45.388;11.784;2022-07-29T15:41:12;33.16;36.99
68578;SHT31;61668;45.388;11.784;2022-07-29T15:43:42;33.13;37.03
68578;SHT31;61668;45.388;11.784;2022-07-29T15:46:12;33.09;37.28
68578;SHT31;61668;45.388;11.784;2022-07-29T15:48:58;33.06;37.31
68578;SHT31;61668;45.388;11.784;2022-07-29T15:51:24;33.03;37.49
68578;SHT31;61668;45.388;11.784;2022-07-29T15:53:49;32.97;38.10
68578;SHT31;61668;45.388;11.784;2022-07-29T15:56:15;32.89;38.63
68578;SHT31;61668;45.388;11.784;2022-07-29T15:58:41;32.84;39.08
68578;SHT31;61668;45.388;11.784;2022-07-29T16:01:07;32.80;39.53
68578;SHT31;61668;45.388;11.784;2022-07-29T16:03:32;32.75;39.83
68578;SHT31;61668;45.388;11.784;2022-07-29T16:05:58;32.72;39.98
68578;SHT31;61668;45.388;11.784;2022-07-29T16:08:23;32.70;40.12
68578;SHT31;61668;45.388;11.784;2022-07-29T16:10:49;32.69;40.12
68578;SHT31;61668;45.388;11.784;2022-07-29T16:13:15;32.66;40.24
68578;SHT31;61668;45.388;11.784;2022-07-29T16:15:40;32.63;40.35
68578;SHT31;61668;45.388;11.784;2022-07-29T16:18:06;32.59;40.26
68578;SHT31;61668;45.388;11.784;2022-07-29T16:20:34;32.50;40.24
68578;SHT31;61668;45.388;11.784;2022-07-29T16:23:00;32.42;40.39
68578;SHT31;61668;45.388;11.784;2022-07-29T16:25:26;32.38;40.63
68578;SHT31;61668;45.388;11.784;2022-07-29T16:27:52;32.28;39.83
68578;SHT31;61668;45.388;11.784;2022-07-29T16:30:17;32.19;39.34